sensor_id;sensor_type;location;lat;lon;timestamp;temperature;humidity
42835;DHT22;29335;50.526;30.458;2022-08-01T00:01:50;20.70;91.50
42835;DHT22;29335;50.526;30.458;2022-08-01T00:04:15;20.60;91.60
42835;DHT22;29335;50.526;30.458;2022-08-01T00:06:41;20.50;91.70
42835;DHT22;29335;50.526;30.458;2022-08-01T00:09:06;20.50;91.90
42835;DHT22;29335;50.526;30.458;2022-08-01T00:11:32;20.50;92.00
42835;DHT22;29335;50.526;30.458;2022-08-01T00:13:57;20.50;92.10
42835;DHT22;29335;50.526;30.458;2022-08-01T00:16:23;20.50;92.20
42835;DHT22;29335;50.526;30.458;2022-08-01T00:18:50;20.50;92.30
42835;DHT22;29335;50.526;30.458;2022-08-01T00:21:16;20.40;92.40
42835;DHT22;29335;50.526;30.458;2022-08-01T00:23:42;20.50;92.50
42835;DHT22;29335;50.526;30.458;2022-08-01T00:26:08;20.40;92.60
42835;DHT22;29335;50.526;30.458;2022-08-01T00:28:34;20.40;92.70
42835;DHT22;29335;50.526;30.458;2022-08-01T00:31:00;20.40;92.80
42835;DHT22;29335;50.526;30.458;2022-08-01T00:33:25;20.30;92.80
42835;DHT22;29335;50.526;30.458;2022-08-01T00:35:51;20.40;92.80
42835;DHT22;29335;50.526;30.458;2022-08-01T00:38:17;20.30;92.80
42835;DHT22;29335;50.526;30.458;2022-08-01T00:40:42;20.30;93.00
42835;DHT22;29335;50.526;30.458;2022-08-01T00:43:08;20.40;93.20
42835;DHT22;29335;50.526;30.458;2022-08-01T00:45:34;20.30;93.40
42835;DHT22;29335;50.526;30.458;2022-08-01T00:48:00;20.20;93.50
42835;DHT22;29335;50.526;30.458;2022-08-01T00:50:25;20.60;93.60
42835;DHT22;29335;50.526;30.458;2022-08-01T00:52:51;20.20;93.60
42835;DHT22;29335;50.526;30.458;2022-08-01T00:55:18;20.20;93.70
42835;DHT22;29335;50.526;30.458;2022-08-01T00:57:44;20.20;93.60
42835;DHT22;29335;50.526;30.458;2022-08-01T01:00:10;20.20;93.50
42835;DHT22;29335;50.526;30.458;2022-08-01T01:02:36;20.30;93.50
42835;DHT22;29335;50.526;30.458;2022-08-01T01:05:02;20.20;93.50
42835;DHT22;29335;50.526;30.458;2022-08-01T01:08:05;20.20;93.50
42835;DHT22;29335;50.526;30.458;2022-08-01T01:10:40;20.10;93.70
42835;DHT22;29335;50.526;30.458;2022-08-01T01:15:56;20.00;93.80
42835;DHT22;29335;50.526;30.458;2022-08-01T01:19:00;19.20;93.80
42835;DHT22;29335;50.526;30.458;2022-08-01T01:21:56;20.00;94.10
42835;DHT22;29335;50.526;30.458;2022-08-01T01:27:35;19.90;94.60
42835;DHT22;29335;50.526;30.458;2022-08-01T01:30:02;20.00;94.50
42835;DHT22;29335;50.526;30.458;2022-08-01T01:32:33;19.90;94.70
42835;DHT22;29335;50.526;30.458;2022-08-01T01:35:07;20.10;94.80
42835;DHT22;29335;50.526;30.458;2022-08-01T01:37:35;20.00;95.00
42835;DHT22;29335;50.526;30.458;2022-08-01T01:40:04;19.90;95.20
42835;DHT22;29335;50.526;30.458;2022-08-01T01:42:32;19.80;95.40
42835;DHT22;29335;50.526;30.458;2022-08-01T01:44:58;21.80;96.10
42835;DHT22;29335;50.526;30.458;2022-08-01T01:47:25;19.70;96.00
42835;DHT22;29335;50.526;30.458;2022-08-01T01:49:54;20.00;96.20
42835;DHT22;29335;50.526;30.458;2022-08-01T01:52:21;19.70;96.30
42835;DHT22;29335;50.526;30.458;2022-08-01T01:54:50;19.70;96.70
42835;DHT22;29335;50.526;30.458;2022-08-01T01:57:17;19.50;97.30
42835;DHT22;29335;50.526;30.458;2022-08-01T01:59:44;19.40;97.70
42835;DHT22;29335;50.526;30.458;2022-08-01T02:02:11;19.40;98.30
42835;DHT22;29335;50.526;30.458;2022-08-01T02:04:40;20.80;99.40
42835;DHT22;29335;50.526;30.458;2022-08-01T02:07:10;19.30;99.40
42835;DHT22;29335;50.526;30.458;2022-08-01T02:09:37;19.30;99.90
42835;DHT22;29335;50.526;30.458;2022-08-01T02:12:05;19.20;99.90
42835;DHT22;29335;50.526;30.458;2022-08-01T02:14:33;19.20;99.90
42835;DHT22;29335;50.526;30.458;2022-08-01T02:17:01;19.20;99.90
42835;DHT22;29335;50.526;30.458;2022-08-01T02:19:30;19.70;99.90
42835;DHT22;29335;50.526;30.458;2022-08-01T02:22:04;19.90;99.90
42835;DHT22;29335;50.526;30.458;2022-08-01T02:27:20;19.20;99.90
42835;DHT22;29335;50.526;30.458;2022-08-01T02:32:24;19.20;99.90
42835;DHT22;29335;50.526;30.458;2022-08-01T02:34:51;19.40;99.90
42835;DHT22;29335;50.526;30.458;2022-08-01T02:37:18;19.20;99.90
42835;DHT22;29335;50.526;30.458;2022-08-01T02:39:47;19.20;99.90
42835;DHT22;29335;50.526;30.458;2022-08-01T02:42:15;19.30;99.90
42835;DHT22;29335;50.526;30.458;2022-08-01T02:44:43;19.30;99.90
42835;DHT22;29335;50.526;30.458;2022-08-01T02:47:09;19.30;99.90
42835;DHT22;29335;50.526;30.458;2022-08-01T02:49:45;20.30;99.90
42835;DHT22;29335;50.526;30.458;2022-08-01T02:52:14;19.30;99.90
42835;DHT22;29335;50.526;30.458;2022-08-01T02:54:42;19.30;99.90
42835;DHT22;29335;50.526;30.458;2022-08-01T02:57:09;19.40;99.90
42835;DHT22;29335;50.526;30.458;2022-08-01T02:59:37;19.50;99.90
42835;DHT22;29335;50.526;30.458;2022-08-01T03:02:05;20.10;99.90
42835;DHT22;29335;50.526;30.458;2022-08-01T03:04:33;19.50;99.90
42835;DHT22;29335;50.526;30.458;2022-08-01T03:07:00;19.60;99.90
42835;DHT22;29335;50.526;30.458;2022-08-01T03:09:29;19.80;99.90
42835;DHT22;29335;50.526;30.458;2022-08-01T03:11:57;19.80;99.90
42835;DHT22;29335;50.526;30.458;2022-08-01T03:14:24;19.80;99.90
42835;DHT22;29335;50.526;30.458;2022-08-01T03:16:52;20.00;99.90
42835;DHT22;29335;50.526;30.458;2022-08-01T03:19:18;20.00;99.80
42835;DHT22;29335;50.526;30.458;2022-08-01T03:21:48;20.10;99.50
42835;DHT22;29335;50.526;30.458;2022-08-01T03:24:16;20.10;99.20
42835;DHT22;29335;50.526;30.458;2022-08-01T03:26:43;20.60;99.10
42835;DHT22;29335;50.526;30.458;2022-08-01T03:29:17;20.30;98.80
42835;DHT22;29335;50.526;30.458;2022-08-01T03:31:44;20.30;98.50
42835;DHT22;29335;50.526;30.458;2022-08-01T03:34:11;20.40;98.40
42835;DHT22;29335;50.526;30.458;2022-08-01T03:36:47;20.60;98.00
42835;DHT22;29335;50.526;30.458;2022-08-01T03:39:13;20.90;97.60
42835;DHT22;29335;50.526;30.458;2022-08-01T03:41:43;21.10;97.10
42835;DHT22;29335;50.526;30.458;2022-08-01T03:44:13;21.30;96.50
42835;DHT22;29335;50.526;30.458;2022-08-01T03:46:43;21.40;96.10
42835;DHT22;29335;50.526;30.458;2022-08-01T03:49:31;21.50;95.90
42835;DHT22;29335;50.526;30.458;2022-08-01T03:52:00;22.00;95.70
42835;DHT22;29335;50.526;30.458;2022-08-01T03:54:31;21.60;95.40
42835;DHT22;29335;50.526;30.458;2022-08-01T03:57:00;21.60;95.30
42835;DHT22;29335;50.526;30.458;2022-08-01T03:59:26;21.70;95.10
42835;DHT22;29335;50.526;30.458;2022-08-01T04:01:52;21.70;94.80
42835;DHT22;29335;50.526;30.458;2022-08-01T04:04:19;21.60;94.90
42835;DHT22;29335;50.526;30.458;2022-08-01T04:06:45;21.70;94.60
42835;DHT22;29335;50.526;30.458;2022-08-01T04:09:11;21.70;94.40
42835;DHT22;29335;50.526;30.458;2022-08-01T04:11:37;21.80;94.00
42835;DHT22;29335;50.526;30.458;2022-08-01T04:14:03;22.10;93.70
42835;DHT22;29335;50.526;30.458;2022-08-01T04:16:29;22.10;93.30
42835;DHT22;29335;50.526;30.458;2022-08-01T04:18:55;22.30;92.90
42835;DHT22;29335;50.526;30.458;2022-08-01T04:21:23;22.40;92.60
42835;DHT22;29335;50.526;30.458;2022-08-01T04:23:52;22.50;92.10
42835;DHT22;29335;50.526;30.458;2022-08-01T04:26:21;22.70;91.70
42835;DHT22;29335;50.526;30.458;2022-08-01T04:28:48;23.10;91.80
42835;DHT22;29335;50.526;30.458;2022-08-01T04:31:17;22.90;90.90
42835;DHT22;29335;50.526;30.458;2022-08-01T04:33:47;22.90;91.20
42835;DHT22;29335;50.526;30.458;2022-08-01T04:36:16;23.10;91.20
42835;DHT22;29335;50.526;30.458;2022-08-01T04:38:45;23.30;90.30
42835;DHT22;29335;50.526;30.458;2022-08-01T04:41:12;23.50;90.00
42835;DHT22;29335;50.526;30.458;2022-08-01T04:43:38;23.70;88.80
42835;DHT22;29335;50.526;30.458;2022-08-01T04:46:05;24.00;87.90
42835;DHT22;29335;50.526;30.458;2022-08-01T04:48:33;24.20;85.30
42835;DHT22;29335;50.526;30.458;2022-08-01T04:51:00;24.30;83.40
42835;DHT22;29335;50.526;30.458;2022-08-01T04:53:25;24.60;84.50
42835;DHT22;29335;50.526;30.458;2022-08-01T04:55:52;24.80;83.20
42835;DHT22;29335;50.526;30.458;2022-08-01T04:58:17;24.90;81.30
42835;DHT22;29335;50.526;30.458;2022-08-01T05:00:43;25.00;81.30
42835;DHT22;29335;50.526;30.458;2022-08-01T05:03:09;25.10;80.70
42835;DHT22;29335;50.526;30.458;2022-08-01T05:05:34;25.20;79.40
42835;DHT22;29335;50.526;30.458;2022-08-01T05:08:00;25.30;78.60
42835;DHT22;29335;50.526;30.458;2022-08-01T05:10:26;25.40;77.90
42835;DHT22;29335;50.526;30.458;2022-08-01T05:12:52;25.50;76.80
42835;DHT22;29335;50.526;30.458;2022-08-01T05:15:18;25.40;76.50
42835;DHT22;29335;50.526;30.458;2022-08-01T05:17:44;25.40;76.50
42835;DHT22;29335;50.526;30.458;2022-08-01T05:20:11;25.50;75.70
42835;DHT22;29335;50.526;30.458;2022-08-01T05:22:37;25.60;76.00
42835;DHT22;29335;50.526;30.458;2022-08-01T05:25:03;25.60;76.00
42835;DHT22;29335;50.526;30.458;2022-08-01T05:27:30;25.70;75.70
42835;DHT22;29335;50.526;30.458;2022-08-01T05:29:56;25.70;74.80
42835;DHT22;29335;50.526;30.458;2022-08-01T05:32:22;25.60;74.60
42835;DHT22;29335;50.526;30.458;2022-08-01T05:34:48;25.50;75.10
42835;DHT22;29335;50.526;30.458;2022-08-01T05:37:13;25.30;74.30
42835;DHT22;29335;50.526;30.458;2022-08-01T05:39:39;25.00;74.60
42835;DHT22;29335;50.526;30.458;2022-08-01T05:42:04;25.10;74.70
42835;DHT22;29335;50.526;30.458;2022-08-01T05:44:30;25.30;74.70
42835;DHT22;29335;50.526;30.458;2022-08-01T05:46:56;25.40;73.90
42835;DHT22;29335;50.526;30.458;2022-08-01T05:49:22;25.50;73.50
42835;DHT22;29335;50.526;30.458;2022-08-01T05:51:47;25.60;73.30
42835;DHT22;29335;50.526;30.458;2022-08-01T05:54:13;25.50;72.80
42835;DHT22;29335;50.526;30.458;2022-08-01T05:56:39;25.40;72.80
42835;DHT22;29335;50.526;30.458;2022-08-01T05:59:04;25.30;72.70
42835;DHT22;29335;50.526;30.458;2022-08-01T06:01:30;25.20;73.10
42835;DHT22;29335;50.526;30.458;2022-08-01T06:03:56;25.10;73.50
42835;DHT22;29335;50.526;30.458;2022-08-01T06:06:22;25.30;73.60
42835;DHT22;29335;50.526;30.458;2022-08-01T06:08:48;25.40;73.60
42835;DHT22;29335;50.526;30.458;2022-08-01T06:11:14;25.40;73.40
42835;DHT22;29335;50.526;30.458;2022-08-01T06:13:39;25.40;73.20
42835;DHT22;29335;50.526;30.458;2022-08-01T06:16:05;25.40;73.20
42835;DHT22;29335;50.526;30.458;2022-08-01T06:18:31;25.30;73.30
42835;DHT22;29335;50.526;30.458;2022-08-01T06:20:56;25.40;73.60
42835;DHT22;29335;50.526;30.458;2022-08-01T06:23:22;25.40;73.70
42835;DHT22;29335;50.526;30.458;2022-08-01T06:25:48;25.40;74.30
42835;DHT22;29335;50.526;30.458;2022-08-01T06:28:16;25.10;74.00
42835;DHT22;29335;50.526;30.458;2022-08-01T06:30:42;24.90;74.30
42835;DHT22;29335;50.526;30.458;2022-08-01T06:33:08;24.80;74.80
42835;DHT22;29335;50.526;30.458;2022-08-01T06:35:34;24.90;74.90
42835;DHT22;29335;50.526;30.458;2022-08-01T06:37:59;25.00;75.10
42835;DHT22;29335;50.526;30.458;2022-08-01T06:40:25;24.90;75.10
42835;DHT22;29335;50.526;30.458;2022-08-01T06:42:51;24.80;75.30
42835;DHT22;29335;50.526;30.458;2022-08-01T06:45:17;24.80;75.40
42835;DHT22;29335;50.526;30.458;2022-08-01T06:47:43;24.90;75.70
42835;DHT22;29335;50.526;30.458;2022-08-01T06:50:11;25.00;75.50
42835;DHT22;29335;50.526;30.458;2022-08-01T06:52:37;24.90;75.50
42835;DHT22;29335;50.526;30.458;2022-08-01T06:55:03;24.80;75.80
42835;DHT22;29335;50.526;30.458;2022-08-01T06:57:29;25.00;75.90
42835;DHT22;29335;50.526;30.458;2022-08-01T06:59:55;24.90;75.90
42835;DHT22;29335;50.526;30.458;2022-08-01T07:02:21;24.90;76.10
42835;DHT22;29335;50.526;30.458;2022-08-01T07:04:47;24.90;75.90
42835;DHT22;29335;50.526;30.458;2022-08-01T07:07:12;24.90;75.90
42835;DHT22;29335;50.526;30.458;2022-08-01T07:09:38;24.90;76.20
42835;DHT22;29335;50.526;30.458;2022-08-01T07:12:06;25.20;76.40
42835;DHT22;29335;50.526;30.458;2022-08-01T07:14:32;25.00;76.00
42835;DHT22;29335;50.526;30.458;2022-08-01T07:16:57;24.90;75.90
42835;DHT22;29335;50.526;30.458;2022-08-01T07:19:23;25.00;76.00
42835;DHT22;29335;50.526;30.458;2022-08-01T07:21:49;25.10;75.70
42835;DHT22;29335;50.526;30.458;2022-08-01T07:24:14;25.10;75.90
42835;DHT22;29335;50.526;30.458;2022-08-01T07:26:46;25.10;76.30
42835;DHT22;29335;50.526;30.458;2022-08-01T07:29:12;25.30;76.80
42835;DHT22;29335;50.526;30.458;2022-08-01T07:31:37;25.30;77.30
42835;DHT22;29335;50.526;30.458;2022-08-01T07:34:03;25.30;77.70
42835;DHT22;29335;50.526;30.458;2022-08-01T07:36:29;25.40;76.70
42835;DHT22;29335;50.526;30.458;2022-08-01T07:38:55;25.50;76.50
42835;DHT22;29335;50.526;30.458;2022-08-01T07:41:20;25.50;76.10
42835;DHT22;29335;50.526;30.458;2022-08-01T07:43:46;25.60;76.00
42835;DHT22;29335;50.526;30.458;2022-08-01T07:46:14;25.90;76.30
42835;DHT22;29335;50.526;30.458;2022-08-01T07:48:41;25.90;75.30
42835;DHT22;29335;50.526;30.458;2022-08-01T07:51:06;25.90;74.80
42835;DHT22;29335;50.526;30.458;2022-08-01T07:53:33;25.90;74.40
42835;DHT22;29335;50.526;30.458;2022-08-01T07:55:59;25.90;74.40
42835;DHT22;29335;50.526;30.458;2022-08-01T07:58:25;26.00;74.20
42835;DHT22;29335;50.526;30.458;2022-08-01T08:00:50;26.00;74.20
42835;DHT22;29335;50.526;30.458;2022-08-01T08:03:16;26.10;74.30
42835;DHT22;29335;50.526;30.458;2022-08-01T08:05:41;26.10;73.70
42835;DHT22;29335;50.526;30.458;2022-08-01T08:08:08;26.20;73.20
42835;DHT22;29335;50.526;30.458;2022-08-01T08:10:36;26.20;73.70
42835;DHT22;29335;50.526;30.458;2022-08-01T08:13:02;26.10;74.00
42835;DHT22;29335;50.526;30.458;2022-08-01T08:15:28;26.10;74.10
42835;DHT22;29335;50.526;30.458;2022-08-01T08:17:54;26.30;74.30
42835;DHT22;29335;50.526;30.458;2022-08-01T08:20:20;26.30;73.30
42835;DHT22;29335;50.526;30.458;2022-08-01T08:22:50;26.20;74.10
42835;DHT22;29335;50.526;30.458;2022-08-01T08:25:16;26.20;73.60
42835;DHT22;29335;50.526;30.458;2022-08-01T08:27:44;26.10;73.70
42835;DHT22;29335;50.526;30.458;2022-08-01T08:30:10;26.20;73.90
42835;DHT22;29335;50.526;30.458;2022-08-01T08:32:36;26.20;73.80
42835;DHT22;29335;50.526;30.458;2022-08-01T08:35:03;26.30;73.80
42835;DHT22;29335;50.526;30.458;2022-08-01T08:37:30;26.40;74.90
42835;DHT22;29335;50.526;30.458;2022-08-01T08:39:56;26.60;74.40
42835;DHT22;29335;50.526;30.458;2022-08-01T08:42:22;26.50;74.30
42835;DHT22;29335;50.526;30.458;2022-08-01T08:44:48;26.70;74.80
42835;DHT22;29335;50.526;30.458;2022-08-01T08:47:14;26.40;74.20
42835;DHT22;29335;50.526;30.458;2022-08-01T08:49:43;26.20;74.60
42835;DHT22;29335;50.526;30.458;2022-08-01T08:52:09;26.30;74.60
42835;DHT22;29335;50.526;30.458;2022-08-01T08:54:37;26.30;74.60
42835;DHT22;29335;50.526;30.458;2022-08-01T08:57:03;26.50;74.50
42835;DHT22;29335;50.526;30.458;2022-08-01T08:59:29;26.70;74.40
42835;DHT22;29335;50.526;30.458;2022-08-01T09:01:56;26.90;73.80
42835;DHT22;29335;50.526;30.458;2022-08-01T09:04:22;27.10;74.20
42835;DHT22;29335;50.526;30.458;2022-08-01T09:06:51;27.00;74.50
42835;DHT22;29335;50.526;30.458;2022-08-01T09:09:17;27.10;74.60
42835;DHT22;29335;50.526;30.458;2022-08-01T09:11:43;26.90;74.40
42835;DHT22;29335;50.526;30.458;2022-08-01T09:14:14;26.80;75.00
42835;DHT22;29335;50.526;30.458;2022-08-01T09:16:41;26.80;74.60
42835;DHT22;29335;50.526;30.458;2022-08-01T09:19:18;26.80;74.70
42835;DHT22;29335;50.526;30.458;2022-08-01T09:21:58;26.90;74.80
42835;DHT22;29335;50.526;30.458;2022-08-01T09:24:26;26.90;75.10
42835;DHT22;29335;50.526;30.458;2022-08-01T09:26:52;26.80;75.10
42835;DHT22;29335;50.526;30.458;2022-08-01T09:29:31;27.00;75.10
42835;DHT22;29335;50.526;30.458;2022-08-01T09:31:59;27.00;75.50
42835;DHT22;29335;50.526;30.458;2022-08-01T09:34:30;26.90;75.90
42835;DHT22;29335;50.526;30.458;2022-08-01T09:36:58;26.90;75.60
42835;DHT22;29335;50.526;30.458;2022-08-01T09:39:35;27.00;75.60
42835;DHT22;29335;50.526;30.458;2022-08-01T09:42:21;27.20;75.50
42835;DHT22;29335;50.526;30.458;2022-08-01T09:44:48;27.40;74.90
42835;DHT22;29335;50.526;30.458;2022-08-01T09:47:14;27.40;74.50
42835;DHT22;29335;50.526;30.458;2022-08-01T09:49:41;27.40;74.30
42835;DHT22;29335;50.526;30.458;2022-08-01T09:52:21;27.30;74.70
42835;DHT22;29335;50.526;30.458;2022-08-01T09:54:58;27.40;74.60
42835;DHT22;29335;50.526;30.458;2022-08-01T09:57:25;27.50;74.30
42835;DHT22;29335;50.526;30.458;2022-08-01T09:59:53;27.70;74.00
42835;DHT22;29335;50.526;30.458;2022-08-01T10:02:33;27.80;74.10
42835;DHT22;29335;50.526;30.458;2022-08-01T10:05:04;27.90;73.80
42835;DHT22;29335;50.526;30.458;2022-08-01T10:07:30;27.90;73.80
42835;DHT22;29335;50.526;30.458;2022-08-01T10:10:15;27.90;74.60
42835;DHT22;29335;50.526;30.458;2022-08-01T10:12:42;28.10;73.50
42835;DHT22;29335;50.526;30.458;2022-08-01T10:15:08;28.20;73.30
42835;DHT22;29335;50.526;30.458;2022-08-01T10:17:34;28.30;73.30
42835;DHT22;29335;50.526;30.458;2022-08-01T10:20:03;28.40;73.00
42835;DHT22;29335;50.526;30.458;2022-08-01T10:22:30;28.40;73.10
42835;DHT22;29335;50.526;30.458;2022-08-01T10:24:58;28.50;73.30
42835;DHT22;29335;50.526;30.458;2022-08-01T10:27:29;28.50;73.40
42835;DHT22;29335;50.526;30.458;2022-08-01T10:29:59;28.50;73.40
42835;DHT22;29335;50.526;30.458;2022-08-01T10:32:34;28.50;73.70
42835;DHT22;29335;50.526;30.458;2022-08-01T10:35:01;28.50;73.70
42835;DHT22;29335;50.526;30.458;2022-08-01T10:37:27;28.50;74.10
42835;DHT22;29335;50.526;30.458;2022-08-01T10:39:53;28.30;74.80
42835;DHT22;29335;50.526;30.458;2022-08-01T10:42:21;28.20;75.00
42835;DHT22;29335;50.526;30.458;2022-08-01T10:44:47;28.10;75.30
42835;DHT22;29335;50.526;30.458;2022-08-01T10:47:18;28.20;75.40
42835;DHT22;29335;50.526;30.458;2022-08-01T10:50:13;28.20;75.70
42835;DHT22;29335;50.526;30.458;2022-08-01T10:52:41;28.10;75.90
42835;DHT22;29335;50.526;30.458;2022-08-01T10:55:08;28.20;75.80
42835;DHT22;29335;50.526;30.458;2022-08-01T10:57:46;28.40;75.40
42835;DHT22;29335;50.526;30.458;2022-08-01T11:00:18;28.60;74.90
42835;DHT22;29335;50.526;30.458;2022-08-01T11:03:00;28.50;74.90
42835;DHT22;29335;50.526;30.458;2022-08-01T11:05:27;28.40;75.10
42835;DHT22;29335;50.526;30.458;2022-08-01T11:07:54;28.40;75.10
42835;DHT22;29335;50.526;30.458;2022-08-01T11:10:40;28.50;74.80
42835;DHT22;29335;50.526;30.458;2022-08-01T11:13:09;26.30;72.30
42835;DHT22;29335;50.526;30.458;2022-08-01T11:15:37;28.70;73.90
42835;DHT22;29335;50.526;30.458;2022-08-01T11:20:57;29.10;73.60
42835;DHT22;29335;50.526;30.458;2022-08-01T11:23:23;29.20;73.10
42835;DHT22;29335;50.526;30.458;2022-08-01T11:30:48;29.20;74.20
42835;DHT22;29335;50.526;30.458;2022-08-01T11:33:16;29.00;74.50
42835;DHT22;29335;50.526;30.458;2022-08-01T11:47:03;28.90;74.70
42835;DHT22;29335;50.526;30.458;2022-08-01T11:54:43;29.00;74.20
42835;DHT22;29335;50.526;30.458;2022-08-01T11:59:47;28.70;75.10
42835;DHT22;29335;50.526;30.458;2022-08-01T12:02:25;28.60;75.10
42835;DHT22;29335;50.526;30.458;2022-08-01T12:07:23;28.70;74.80
42835;DHT22;29335;50.526;30.458;2022-08-01T12:10:01;28.70;75.60
42835;DHT22;29335;50.526;30.458;2022-08-01T12:12:29;28.70;75.10
42835;DHT22;29335;50.526;30.458;2022-08-01T12:14:58;28.70;75.60
42835;DHT22;29335;50.526;30.458;2022-08-01T12:17:38;28.80;74.90
42835;DHT22;29335;50.526;30.458;2022-08-01T12:20:07;29.00;74.60
42835;DHT22;29335;50.526;30.458;2022-08-01T12:22:33;29.00;74.50
42835;DHT22;29335;50.526;30.458;2022-08-01T12:25:16;29.10;74.40
42835;DHT22;29335;50.526;30.458;2022-08-01T12:27:43;29.20;74.20
42835;DHT22;29335;50.526;30.458;2022-08-01T12:30:12;29.10;74.70
42835;DHT22;29335;50.526;30.458;2022-08-01T12:32:40;29.10;74.70
42835;DHT22;29335;50.526;30.458;2022-08-01T12:35:08;29.00;74.50
42835;DHT22;29335;50.526;30.458;2022-08-01T12:37:38;28.90;74.70
42835;DHT22;29335;50.526;30.458;2022-08-01T12:40:13;28.90;75.20
42835;DHT22;29335;50.526;30.458;2022-08-01T12:42:40;28.90;75.20
42835;DHT22;29335;50.526;30.458;2022-08-01T12:45:12;28.90;75.30
42835;DHT22;29335;50.526;30.458;2022-08-01T12:47:39;29.00;75.00
42835;DHT22;29335;50.526;30.458;2022-08-01T12:50:11;29.00;74.90
42835;DHT22;29335;50.526;30.458;2022-08-01T12:52:38;28.80;74.90
42835;DHT22;29335;50.526;30.458;2022-08-01T12:57:35;28.70;75.10
42835;DHT22;29335;50.526;30.458;2022-08-01T13:00:15;28.60;75.70
42835;DHT22;29335;50.526;30.458;2022-08-01T13:02:43;28.60;75.60
42835;DHT22;29335;50.526;30.458;2022-08-01T13:05:09;28.50;75.70
42835;DHT22;29335;50.526;30.458;2022-08-01T13:10:06;28.50;75.40
42835;DHT22;29335;50.526;30.458;2022-08-01T13:12:32;28.40;75.10
42835;DHT22;29335;50.526;30.458;2022-08-01T13:14:58;28.40;75.30
42835;DHT22;29335;50.526;30.458;2022-08-01T13:17:31;28.60;75.40
42835;DHT22;29335;50.526;30.458;2022-08-01T13:19:57;28.60;75.50
42835;DHT22;29335;50.526;30.458;2022-08-01T13:22:32;28.60;75.20
42835;DHT22;29335;50.526;30.458;2022-08-01T13:25:24;28.60;75.20
42835;DHT22;29335;50.526;30.458;2022-08-01T13:28:20;28.60;75.40
42835;DHT22;29335;50.526;30.458;2022-08-01T13:30:58;28.60;75.00
42835;DHT22;29335;50.526;30.458;2022-08-01T13:33:26;28.50;74.90
42835;DHT22;29335;50.526;30.458;2022-08-01T13:35:56;28.40;75.70
42835;DHT22;29335;50.526;30.458;2022-08-01T13:38:22;28.40;75.80
42835;DHT22;29335;50.526;30.458;2022-08-01T13:41:06;28.40;76.00
42835;DHT22;29335;50.526;30.458;2022-08-01T13:43:32;28.30;76.50
42835;DHT22;29335;50.526;30.458;2022-08-01T13:45:58;28.40;76.80
42835;DHT22;29335;50.526;30.458;2022-08-01T13:48:24;28.30;77.40
42835;DHT22;29335;50.526;30.458;2022-08-01T13:50:49;28.40;77.20
42835;DHT22;29335;50.526;30.458;2022-08-01T13:53:15;28.40;77.20
42835;DHT22;29335;50.526;30.458;2022-08-01T13:55:42;28.50;77.10
42835;DHT22;29335;50.526;30.458;2022-08-01T13:58:08;28.40;77.40
42835;DHT22;29335;50.526;30.458;2022-08-01T14:00:34;28.40;77.70
42835;DHT22;29335;50.526;30.458;2022-08-01T14:03:00;28.40;76.40
42835;DHT22;29335;50.526;30.458;2022-08-01T14:05:25;28.20;76.80
42835;DHT22;29335;50.526;30.458;2022-08-01T14:07:51;28.00;76.20
42835;DHT22;29335;50.526;30.458;2022-08-01T14:10:16;27.90;76.40
42835;DHT22;29335;50.526;30.458;2022-08-01T14:12:42;27.90;75.30
42835;DHT22;29335;50.526;30.458;2022-08-01T14:15:08;27.70;75.50
42835;DHT22;29335;50.526;30.458;2022-08-01T14:17:34;27.50;76.80
42835;DHT22;29335;50.526;30.458;2022-08-01T14:19:59;27.50;76.70
42835;DHT22;29335;50.526;30.458;2022-08-01T14:22:26;27.50;76.20
42835;DHT22;29335;50.526;30.458;2022-08-01T14:24:51;27.50;75.90
42835;DHT22;29335;50.526;30.458;2022-08-01T14:27:17;27.50;75.50
42835;DHT22;29335;50.526;30.458;2022-08-01T14:29:43;27.40;75.20
42835;DHT22;29335;50.526;30.458;2022-08-01T14:32:08;27.40;75.40
42835;DHT22;29335;50.526;30.458;2022-08-01T14:34:34;27.50;75.60
42835;DHT22;29335;50.526;30.458;2022-08-01T14:36:59;27.50;74.90
42835;DHT22;29335;50.526;30.458;2022-08-01T14:39:25;27.50;75.00
42835;DHT22;29335;50.526;30.458;2022-08-01T14:41:50;27.70;74.50
42835;DHT22;29335;50.526;30.458;2022-08-01T14:44:16;27.80;74.80
42835;DHT22;29335;50.526;30.458;2022-08-01T14:46:42;27.80;75.00
42835;DHT22;29335;50.526;30.458;2022-08-01T14:49:09;27.80;75.10
42835;DHT22;29335;50.526;30.458;2022-08-01T14:51:35;27.80;75.20
42835;DHT22;29335;50.526;30.458;2022-08-01T14:54:04;27.60;75.90
42835;DHT22;29335;50.526;30.458;2022-08-01T14:56:29;27.50;76.30
42835;DHT22;29335;50.526;30.458;2022-08-01T14:58:55;27.60;76.50
42835;DHT22;29335;50.526;30.458;2022-08-01T15:01:20;27.70;76.20
42835;DHT22;29335;50.526;30.458;2022-08-01T15:03:46;27.90;76.40
42835;DHT22;29335;50.526;30.458;2022-08-01T15:06:13;28.00;76.30
42835;DHT22;29335;50.526;30.458;2022-08-01T15:08:39;28.10;76.50
42835;DHT22;29335;50.526;30.458;2022-08-01T15:11:05;28.30;77.40
42835;DHT22;29335;50.526;30.458;2022-08-01T15:13:31;28.30;78.30
42835;DHT22;29335;50.526;30.458;2022-08-01T15:15:57;28.20;78.80
42835;DHT22;29335;50.526;30.458;2022-08-01T15:18:23;28.20;78.90
42835;DHT22;29335;50.526;30.458;2022-08-01T15:20:49;28.40;78.80
42835;DHT22;29335;50.526;30.458;2022-08-01T15:23:14;28.30;79.00
42835;DHT22;29335;50.526;30.458;2022-08-01T15:25:40;28.10;79.50
42835;DHT22;29335;50.526;30.458;2022-08-01T15:28:05;28.00;79.80
42835;DHT22;29335;50.526;30.458;2022-08-01T15:30:31;27.90;80.20
42835;DHT22;29335;50.526;30.458;2022-08-01T15:32:58;27.70;80.70
42835;DHT22;29335;50.526;30.458;2022-08-01T15:35:24;27.50;81.50
42835;DHT22;29335;50.526;30.458;2022-08-01T15:37:50;27.50;81.90
42835;DHT22;29335;50.526;30.458;2022-08-01T15:40:15;27.30;82.50
42835;DHT22;29335;50.526;30.458;2022-08-01T15:42:41;27.20;82.80
42835;DHT22;29335;50.526;30.458;2022-08-01T15:45:07;27.20;82.90
42835;DHT22;29335;50.526;30.458;2022-08-01T15:47:33;27.10;83.40
42835;DHT22;29335;50.526;30.458;2022-08-01T15:49:58;27.00;83.70
42835;DHT22;29335;50.526;30.458;2022-08-01T15:52:26;27.00;83.80
42835;DHT22;29335;50.526;30.458;2022-08-01T15:54:52;27.10;83.90
42835;DHT22;29335;50.526;30.458;2022-08-01T15:57:17;27.10;83.70
42835;DHT22;29335;50.526;30.458;2022-08-01T15:59:43;26.90;84.10
42835;DHT22;29335;50.526;30.458;2022-08-01T16:02:09;26.90;84.30
42835;DHT22;29335;50.526;30.458;2022-08-01T16:04:34;26.80;84.80
42835;DHT22;29335;50.526;30.458;2022-08-01T16:07:00;26.90;85.10